Time;durP1;ratioP1;P1;durP2;ratioP2;P2;SDS_P1;SDS_P2;PMS_P1;PMS_P2;Temp;Humidity;BMP_temperature;BMP_pressure;BME280_temperature;BME280_humidity;BME280_pressure;Samples;Min_cycle;Max_cycle;Signal;HPM_P1;HPM_P2
2021/07/23 00:00:15;;;;;;;8.10;4.33;;;;;;;12.19;81.57;95985.47;1765455;81;20987;-60
2021/07/23 00:02:43;;;;;;;6.53;4.60;;;;;;;12.13;81.56;95982.95;1765138;81;21066;-60
2021/07/23 00:05:11;;;;;;;6.80;5.30;;;;;;;12.07;81.64;95985.27;1765335;81;21049;-60
2021/07/23 00:07:37;;;;;;;8.67;5.03;;;;;;;12.09;81.53;95982.12;1765479;81;21058;-61
2021/07/23 00:10:06;;;;;;;6.35;4.95;;;;;;;12.09;81.19;95992.70;1764892;81;21062;-60
2021/07/23 00:12:32;;;;;;;8.05;4.72;;;;;;;12.08;81.49;95984.35;1765391;81;21087;-60
2021/07/23 00:14:59;;;;;;;9.53;4.90;;;;;;;12.01;81.25;95990.65;1765243;81;21015;-60
2021/07/23 00:17:25;;;;;;;6.10;4.60;;;;;;;12.01;81.49;95993.30;1764905;81;21045;-60
2021/07/23 00:19:52;;;;;;;5.83;5.00;;;;;;;11.82;82.07;95996.69;1764871;81;21492;-60
2021/07/23 00:22:18;;;;;;;6.63;3.97;;;;;;;11.83;82.01;95993.59;1764979;81;21066;-60
2021/07/23 00:24:45;;;;;;;5.60;4.47;;;;;;;11.81;81.75;95990.96;1764890;81;21103;-60
2021/07/23 00:27:11;;;;;;;9.67;5.53;;;;;;;11.76;81.91;95992.81;1765485;81;20990;-60
2021/07/23 00:29:38;;;;;;;5.40;4.40;;;;;;;11.84;81.76;95996.22;1765024;81;21126;-60
2021/07/23 00:32:06;;;;;;;5.90;4.20;;;;;;;11.87;81.92;95992.23;1765201;81;21061;-60
2021/07/23 00:34:32;;;;;;;5.30;3.80;;;;;;;11.89;81.50;95986.89;1765272;81;21061;-60
2021/07/23 00:36:59;;;;;;;7.17;5.17;;;;;;;11.86;81.07;95985.59;1765032;81;21121;-60
2021/07/23 00:39:25;;;;;;;7.85;4.65;;;;;;;11.80;80.94;95982.62;1733372;81;21532;-60
2021/07/23 00:41:52;;;;;;;8.13;4.78;;;;;;;11.76;81.34;95983.56;1765394;81;20994;-60
2021/07/23 00:44:19;;;;;;;4.97;4.30;;;;;;;11.73;82.37;95986.72;1764571;81;21014;-60
2021/07/23 00:46:46;;;;;;;5.17;4.13;;;;;;;11.79;82.54;95987.92;1764411;81;21010;-60
2021/07/23 00:49:13;;;;;;;6.23;4.47;;;;;;;11.88;82.30;95990.45;1758620;81;21453;-60
2021/07/23 00:51:40;;;;;;;5.33;4.10;;;;;;;11.90;81.46;95980.73;1730548;82;21572;-60
2021/07/23 00:54:09;;;;;;;5.25;4.25;;;;;;;11.89;81.16;95985.15;1758312;81;21022;-60
2021/07/23 00:56:37;;;;;;;7.83;4.57;;;;;;;11.93;81.16;95983.31;1758543;82;20979;-60
2021/07/23 00:59:04;;;;;;;6.12;4.20;;;;;;;12.01;81.36;95972.14;1758438;82;21006;-60
2021/07/23 01:01:32;;;;;;;5.63;4.17;;;;;;;11.98;81.15;95976.16;1758467;82;21027;-60
2021/07/23 01:04:02;;;;;;;6.08;4.37;;;;;;;11.93;80.68;95975.38;1758589;81;21046;-60
2021/07/23 01:06:30;;;;;;;4.13;3.73;;;;;;;11.76;81.02;95972.98;1758269;82;21058;-60
2021/07/23 01:08:57;;;;;;;6.20;4.40;;;;;;;11.72;81.12;95969.09;1758491;82;21497;-60
2021/07/23 01:11:25;;;;;;;6.97;4.50;;;;;;;11.72;82.03;95964.70;1758461;82;20995;-59
2021/07/23 01:13:57;;;;;;;9.55;5.05;;;;;;;11.73;82.04;95967.75;1755899;82;21078;-60
2021/07/23 01:16:24;;;;;;;8.13;4.97;;;;;;;11.75;81.91;95965.09;1758842;82;20991;-60
2021/07/23 01:18:51;;;;;;;9.50;5.23;;;;;;;11.77;81.64;95962.85;1758395;81;21019;-60
2021/07/23 01:21:19;;;;;;;6.23;4.43;;;;;;;11.76;81.32;95965.51;1758346;81;21006;-60
2021/07/23 01:23:46;;;;;;;9.43;5.47;;;;;;;11.75;81.22;95969.06;1758624;82;21050;-60
2021/07/23 01:26:32;;;;;;;5.37;4.43;;;;;;;11.74;81.37;95970.81;1757995;82;21075;-60
2021/07/23 01:28:59;;;;;;;6.03;4.17;;;;;;;11.67;81.48;95970.52;1758474;82;21050;-60
2021/07/23 01:31:26;;;;;;;5.13;4.57;;;;;;;11.56;81.77;95962.74;1758487;81;21535;-60
2021/07/23 01:33:53;;;;;;;7.37;4.70;;;;;;;11.52;81.72;95956.23;1758108;82;21015;-60
2021/07/23 01:36:20;;;;;;;8.63;4.30;;;;;;;11.54;82.17;95962.34;1758133;82;21038;-60
2021/07/23 01:38:52;;;;;;;6.67;4.23;;;;;;;11.42;82.12;95960.34;1758008;82;21046;-60
2021/07/23 01:41:20;;;;;;;8.47;4.67;;;;;;;11.37;81.70;95958.67;1758433;81;21062;-60
2021/07/23 01:43:47;;;;;;;7.67;4.40;;;;;;;11.26;81.76;95957.08;1758452;81;21011;-60
2021/07/23 01:46:14;;;;;;;5.00;3.77;;;;;;;11.27;82.34;95963.23;1758679;81;20987;-60
2021/07/23 01:48:43;;;;;;;7.00;3.90;;;;;;;11.25;81.91;95957.95;1763479;81;21062;-60
2021/07/23 01:51:14;;;;;;;5.60;4.37;;;;;;;11.27;81.69;95952.66;1762441;81;21020;-60
2021/07/23 01:53:40;;;;;;;5.83;3.47;;;;;;;11.27;82.09;95955.30;1765301;81;21014;-60
2021/07/23 01:56:07;;;;;;;7.23;4.17;;;;;;;11.28;82.17;95953.07;1764845;81;21060;-60
2021/07/23 01:58:35;;;;;;;7.00;4.00;;;;;;;11.27;82.23;95951.34;1764949;81;21101;-60
2021/07/23 02:01:04;;;;;;;7.60;4.40;;;;;;;11.25;83.24;95953.13;1764993;81;21015;-60
2021/07/23 02:03:32;;;;;;;6.87;4.60;;;;;;;11.37;83.15;95957.36;1765176;81;21020;-60
2021/07/23 02:05:58;;;;;;;8.83;4.37;;;;;;;11.43;82.52;95959.43;1765111;81;21026;-59
2021/07/23 02:08:27;;;;;;;11.00;4.53;;;;;;;11.40;81.89;95952.02;1765131;81;21508;-60
2021/07/23 02:10:54;;;;;;;8.03;4.50;;;;;;;11.39;81.53;95951.15;1765329;81;20998;-60
2021/07/23 02:13:21;;;;;;;5.47;4.23;;;;;;;11.39;81.65;95951.57;1765276;81;21054;-59
2021/07/23 02:15:49;;;;;;;6.43;4.70;;;;;;;11.44;81.95;95958.98;1765291;81;21006;-60
2021/07/23 02:18:18;;;;;;;5.53;3.97;;;;;;;11.54;82.11;95950.45;1764629;81;21034;-60
2021/07/23 02:20:45;;;;;;;7.73;4.50;;;;;;;11.49;81.31;95943.95;1765420;81;21038;-60
2021/07/23 02:23:12;;;;;;;6.53;4.13;;;;;;;11.44;81.27;95942.70;1764738;81;21480;-60
2021/07/23 02:25:44;;;;;;;4.10;3.70;;;;;;;11.45;81.19;95944.89;1765334;81;21436;-60
2021/07/23 02:28:10;;;;;;;5.37;4.33;;;;;;;11.39;80.98;95935.72;1765171;81;20979;-60
2021/07/23 02:30:39;;;;;;;7.37;4.67;;;;;;;11.44;81.20;95932.13;1765089;81;21476;-60
2021/07/23 02:33:23;;;;;;;7.40;4.73;;;;;;;11.53;81.18;95931.55;1763788;81;21014;-60
2021/07/23 02:35:51;;;;;;;9.27;4.50;;;;;;;11.53;80.59;95934.19;1765047;81;21074;-61
2021/07/23 02:38:18;;;;;;;5.13;4.33;;;;;;;11.44;80.39;95930.81;1764853;81;21535;-60
2021/07/23 02:40:46;;;;;;;7.17;5.07;;;;;;;11.40;80.55;95939.67;1764659;81;21013;-60
2021/07/23 02:43:13;;;;;;;7.80;4.77;;;;;;;11.36;81.29;95937.09;1764838;81;21022;-60
2021/07/23 02:45:40;;;;;;;5.00;3.80;;;;;;;11.23;80.94;95943.03;1765161;81;21500;-60
2021/07/23 02:48:07;;;;;;;4.97;4.07;;;;;;;11.09;81.26;95942.35;1765021;81;21093;-60
2021/07/23 02:50:35;;;;;;;5.70;4.20;;;;;;;10.98;81.85;95943.39;1765099;81;21504;-61
2021/07/23 02:53:03;;;;;;;5.77;4.27;;;;;;;10.90;82.07;95939.99;1764923;81;20983;-60
2021/07/23 02:55:30;;;;;;;5.30;4.20;;;;;;;10.83;82.33;95941.88;1764971;81;21050;-60
2021/07/23 02:57:57;;;;;;;6.63;4.10;;;;;;;10.78;82.34;95936.20;1765196;81;21069;-60
2021/07/23 03:00:25;;;;;;;5.77;4.60;;;;;;;10.81;82.04;95936.19;1765465;81;21050;-60
2021/07/23 03:02:54;;;;;;;6.30;4.73;;;;;;;10.85;82.54;95939.19;1765644;81;21500;-60
2021/07/23 03:05:21;;;;;;;6.37;4.57;;;;;;;10.86;83.40;95931.72;1765290;81;21022;-59
2021/07/23 03:07:54;;;;;;;7.73;4.43;;;;;;;10.92;83.09;95938.66;1764880;81;21026;-60
2021/07/23 03:10:21;;;;;;;8.20;4.50;;;;;;;10.96;82.79;95942.56;1765490;81;21003;-60
2021/07/23 03:12:48;;;;;;;5.97;4.20;;;;;;;11.03;82.65;95944.19;1765226;81;21027;-59
2021/07/23 03:15:15;;;;;;;6.50;4.43;;;;;;;11.06;82.65;95937.99;1765409;81;21015;-60
2021/07/23 03:17:43;;;;;;;5.83;4.17;;;;;;;11.07;82.51;95941.08;1765285;81;21033;-59
2021/07/23 03:20:11;;;;;;;5.77;4.00;;;;;;;11.13;82.44;95940.97;1764908;81;21014;-59
2021/07/23 03:22:40;;;;;;;5.83;4.13;;;;;;;11.09;83.14;95935.75;1765215;81;20998;-60
2021/07/23 03:25:11;;;;;;;6.37;4.67;;;;;;;11.11;82.38;95933.97;1763603;81;21003;-60
2021/07/23 03:27:45;;;;;;;4.60;3.67;;;;;;;11.13;82.36;95937.46;1760332;81;21517;-59
2021/07/23 03:30:16;;;;;;;5.73;3.47;;;;;;;11.16;82.28;95937.41;1763702;81;21077;-59
2021/07/23 03:32:43;;;;;;;9.70;4.30;;;;;;;11.09;82.56;95934.01;1764774;81;21079;-59
2021/07/23 03:35:11;;;;;;;4.83;3.90;;;;;;;11.18;82.64;95938.27;1765026;81;20998;-59
2021/07/23 03:37:40;;;;;;;4.93;4.00;;;;;;;11.28;82.18;95936.36;1764477;81;21081;-60
2021/07/23 03:40:11;;;;;;;6.67;4.00;;;;;;;11.34;81.93;95931.86;1764162;81;21534;-60
2021/07/23 03:42:39;;;;;;;9.17;4.20;;;;;;;11.32;82.38;95932.78;1765279;81;21042;-60
2021/07/23 03:45:22;;;;;;;7.10;4.30;;;;;;;11.28;82.50;95933.72;1765507;81;20982;-59
2021/07/23 03:47:57;;;;;;;7.27;4.23;;;;;;;11.40;82.33;95936.16;1762510;81;21027;-59
2021/07/23 03:50:24;;;;;;;8.30;4.87;;;;;;;11.47;82.10;95933.39;1758617;81;21034;-60
2021/07/23 03:52:52;;;;;;;6.00;4.47;;;;;;;11.56;82.21;95934.12;1758494;82;21124;-60
2021/07/23 03:55:33;;;;;;;6.87;4.80;;;;;;;11.54;82.61;95934.17;1736937;82;21038;-60
2021/07/23 03:58:00;;;;;;;5.47;4.60;;;;;;;11.62;82.42;95932.27;1758255;82;21581;-60
2021/07/23 04:00:26;;;;;;;6.60;5.07;;;;;;;11.71;82.27;95932.54;1758521;82;21069;-60
2021/07/23 04:02:54;;;;;;;5.40;4.67;;;;;;;11.79;82.00;95930.66;1730631;82;20987;-60
2021/07/23 04:05:21;;;;;;;8.90;5.03;;;;;;;11.83;81.91;95931.00;1758639;81;21022;-60
2021/07/23 04:07:48;;;;;;;6.17;5.50;;;;;;;11.83;82.07;95932.33;1758398;82;21026;-60
2021/07/23 04:10:16;;;;;;;6.83;5.13;;;;;;;11.89;82.03;95936.23;1758639;81;21029;-60
2021/07/23 04:12:43;;;;;;;7.07;4.87;;;;;;;11.97;82.12;95941.80;1758763;82;21452;-60
2021/07/23 04:15:11;;;;;;;7.37;5.62;;;;;;;11.96;82.23;95931.68;1758504;82;21050;-60
2021/07/23 04:17:39;;;;;;;7.30;5.40;;;;;;;11.98;82.38;95932.98;1753978;82;21027;-60
2021/07/23 04:20:08;;;;;;;7.07;5.60;;;;;;;12.05;82.41;95939.91;1758678;81;20998;-60
2021/07/23 04:22:35;;;;;;;7.30;5.40;;;;;;;12.10;82.28;95933.63;1730600;82;21505;-60
2021/07/23 04:25:05;;;;;;;5.33;4.75;;;;;;;12.21;82.36;95937.83;1757472;82;21010;-60
2021/07/23 04:27:32;;;;;;;6.78;4.95;;;;;;;12.24;82.41;95935.98;1758546;81;21054;-60
2021/07/23 04:30:13;;;;;;;9.35;5.22;;;;;;;12.28;83.53;95938.14;1758259;81;21031;-60
2021/07/23 04:32:59;;;;;;;6.72;5.75;;;;;;;12.35;83.42;95934.48;1759045;82;21481;-60
2021/07/23 04:35:26;;;;;;;7.53;5.45;;;;;;;12.46;83.33;95928.50;1758543;81;21007;-60
2021/07/23 04:37:53;;;;;;;7.30;5.30;;;;;;;12.53;82.93;95927.47;1758158;81;21079;-60
2021/07/23 04:40:22;;;;;;;6.75;5.42;;;;;;;12.63;82.88;95928.16;1755401;82;21481;-60
2021/07/23 04:42:49;;;;;;;8.93;4.90;;;;;;;12.70;82.79;95925.80;1758461;82;21019;-60
2021/07/23 04:45:16;;;;;;;7.87;5.53;;;;;;;12.75;82.64;95925.25;1758595;81;20995;-60
2021/07/23 04:47:44;;;;;;;5.80;5.20;;;;;;;12.80;82.40;95925.58;1756944;82;21493;-60
2021/07/23 04:50:12;;;;;;;7.17;5.30;;;;;;;12.85;82.33;95929.00;1758365;82;21046;-60
2021/07/23 04:52:58;;;;;;;6.10;5.12;;;;;;;12.94;82.38;95922.18;1716297;82;21030;-60
2021/07/23 04:55:48;;;;;;;6.55;5.42;;;;;;;13.02;81.98;95925.52;1758427;81;21019;-60
2021/07/23 04:58:14;;;;;;;8.25;5.70;;;;;;;13.19;81.96;95919.38;1757818;82;21477;-60
2021/07/23 05:00:41;;;;;;;8.05;5.47;;;;;;;13.36;82.11;95917.69;1758538;81;21465;-60
2021/07/23 05:03:07;;;;;;;7.05;5.33;;;;;;;13.56;81.70;95913.69;1758626;81;20983;-60
2021/07/23 05:05:35;;;;;;;8.55;5.10;;;;;;;13.67;81.20;95908.97;1758184;81;21103;-60
2021/07/23 05:08:03;;;;;;;8.20;5.97;;;;;;;13.79;81.41;95906.47;1758631;82;20987;-60
2021/07/23 05:10:30;;;;;;;8.58;6.17;;;;;;;13.95;81.11;95897.63;1758566;81;21011;-60
2021/07/23 05:12:58;;;;;;;7.83;5.30;;;;;;;14.10;80.72;95897.22;1758840;81;21014;-60
2021/07/23 05:15:24;;;;;;;8.80;5.55;;;;;;;14.24;80.27;95900.37;1758266;81;21066;-60
2021/07/23 05:17:51;;;;;;;5.92;4.83;;;;;;;14.38;79.68;95896.44;1758477;82;21010;-60
2021/07/23 05:20:17;;;;;;;6.72;4.80;;;;;;;14.53;79.08;95900.44;1758695;82;21540;-60
2021/07/23 05:22:44;;;;;;;7.40;5.12;;;;;;;14.57;78.54;95897.69;1758340;81;21061;-59
2021/07/23 05:25:12;;;;;;;8.60;5.17;;;;;;;14.65;78.59;95897.46;1757962;81;21023;-60
2021/07/23 05:27:39;;;;;;;9.73;6.20;;;;;;;14.80;78.99;95893.48;1758535;81;21030;-60
2021/07/23 05:30:07;;;;;;;7.12;6.12;;;;;;;15.00;79.60;95890.21;1758193;81;20992;-60
2021/07/23 05:32:33;;;;;;;13.68;6.67;;;;;;;15.20;79.75;95890.45;1758617;81;20991;-60
2021/07/23 05:35:00;;;;;;;10.32;6.53;;;;;;;15.37;79.45;95892.55;1758638;81;20998;-60
2021/07/23 05:37:26;;;;;;;12.37;7.00;;;;;;;15.50;79.37;95886.39;1758488;81;21015;-60
2021/07/23 05:39:52;;;;;;;9.75;5.87;;;;;;;15.62;79.31;95887.28;1758490;82;21002;-60
2021/07/23 05:42:19;;;;;;;6.72;5.40;;;;;;;15.73;79.12;95882.52;1758532;82;21461;-60
2021/07/23 05:44:45;;;;;;;7.97;6.15;;;;;;;15.84;78.87;95886.13;1758776;81;21010;-59
2021/07/23 05:47:12;;;;;;;7.65;5.67;;;;;;;15.95;78.44;95881.31;1758354;82;21046;-60
2021/07/23 05:49:39;;;;;;;6.17;4.97;;;;;;;15.98;77.57;95880.34;1758262;81;21038;-60
2021/07/23 05:52:06;;;;;;;7.33;6.05;;;;;;;16.04;77.14;95879.25;1758307;82;21069;-60
2021/07/23 05:54:33;;;;;;;8.58;5.62;;;;;;;16.11;77.48;95877.64;1758067;81;21102;-60
2021/07/23 05:56:59;;;;;;;7.58;5.87;;;;;;;16.25;77.98;95874.94;1758406;82;21544;-60
2021/07/23 05:59:26;;;;;;;10.35;5.37;;;;;;;16.39;78.30;95879.30;1758137;82;21027;-60
2021/07/23 06:01:52;;;;;;;7.40;5.47;;;;;;;16.50;77.98;95881.09;1758452;82;21007;-60
2021/07/23 06:04:19;;;;;;;10.23;6.00;;;;;;;16.63;77.90;95882.83;1758293;81;20999;-60
2021/07/23 06:06:45;;;;;;;8.73;5.47;;;;;;;16.79;77.64;95876.51;1758300;82;20983;-60
2021/07/23 06:09:13;;;;;;;10.43;5.17;;;;;;;16.95;77.28;95878.97;1758494;81;21496;-60
2021/07/23 06:11:40;;;;;;;9.90;5.30;;;;;;;17.08;77.00;95873.58;1758532;82;21497;-60
2021/07/23 06:14:06;;;;;;;11.90;5.25;;;;;;;17.29;77.17;95878.98;1758513;82;21050;-60
2021/07/23 06:16:33;;;;;;;9.93;5.00;;;;;;;17.69;77.01;95872.87;1758605;81;20955;-60
2021/07/23 06:19:00;;;;;;;13.78;5.28;;;;;;;17.69;77.01;95872.87;1758436;82;21058;-60
2021/07/23 06:21:27;;;;;;;12.73;4.78;;;;;;;17.91;76.52;95875.50;1758314;82;21077;-60
2021/07/23 06:23:53;;;;;;;10.43;4.92;;;;;;;18.12;76.29;95864.84;1730567;82;20998;-60
2021/07/23 06:26:20;;;;;;;9.15;4.67;;;;;;;18.28;74.65;95857.02;1758440;82;21501;-60
2021/07/23 06:28:46;;;;;;;8.33;5.20;;;;;;;18.46;74.85;95864.67;1758402;82;21022;-60
2021/07/23 06:31:14;;;;;;;15.30;5.33;;;;;;;18.59;74.72;95856.48;1758537;82;21034;-60
2021/07/23 06:33:41;;;;;;;8.40;5.10;;;;;;;18.82;73.89;95866.13;1758276;82;21074;-60
2021/07/23 06:36:08;;;;;;;7.35;4.85;;;;;;;18.92;72.91;95862.56;1758374;82;21026;-60
2021/07/23 06:38:34;;;;;;;9.50;5.40;;;;;;;18.99;71.27;95858.66;1758522;82;21030;-60
2021/07/23 06:41:05;;;;;;;15.80;6.17;;;;;;;19.09;71.86;95859.95;1758389;82;21015;-60
2021/07/23 06:43:33;;;;;;;9.90;5.10;;;;;;;19.23;72.04;95860.65;1758450;82;21524;-60
2021/07/23 06:46:03;;;;;;;11.18;4.67;;;;;;;19.32;70.30;95860.66;1758592;82;21030;-60
2021/07/23 06:48:29;;;;;;;15.28;5.00;;;;;;;19.41;70.15;95857.06;1758246;81;21014;-60
2021/07/23 06:50:56;;;;;;;9.20;5.05;;;;;;;19.52;69.52;95855.66;1758564;82;21010;-60
2021/07/23 06:53:23;;;;;;;8.85;5.08;;;;;;;19.58;68.52;95862.92;1758405;82;20971;-60
2021/07/23 06:55:49;;;;;;;8.30;5.10;;;;;;;19.68;67.94;95858.02;1757948;82;21078;-60
2021/07/23 06:58:16;;;;;;;10.75;5.22;;;;;;;19.83;68.31;95857.69;1758270;82;21540;-60
2021/07/23 07:00:43;;;;;;;9.45;4.47;;;;;;;19.96;68.18;95858.81;1758484;82;21031;-60
2021/07/23 07:03:09;;;;;;;6.37;4.83;;;;;;;20.08;66.97;95854.61;1758061;82;21002;-60
2021/07/23 07:05:36;;;;;;;7.22;5.05;;;;;;;20.06;60.32;95853.38;1758165;82;20999;-60
2021/07/23 07:08:03;;;;;;;7.25;4.47;;;;;;;20.14;63.35;95855.66;1758328;81;21027;-60
2021/07/23 07:10:30;;;;;;;5.08;4.37;;;;;;;20.27;64.43;95856.73;1758074;82;21078;-60
2021/07/23 07:12:58;;;;;;;4.55;4.15;;;;;;;20.40;62.75;95846.23;1758516;82;21349;-60
2021/07/23 07:15:25;;;;;;;5.33;4.20;;;;;;;20.38;56.69;95844.58;1758540;81;20987;-60
2021/07/23 07:17:58;;;;;;;5.00;3.80;;;;;;;20.47;58.65;95844.09;1757907;82;21062;-60
2021/07/23 07:20:26;;;;;;;5.20;4.10;;;;;;;20.55;56.29;95849.94;1758461;81;21078;-60
2021/07/23 07:22:54;;;;;;;6.33;3.90;;;;;;;20.60;58.75;95847.87;1758381;81;21540;-60
2021/07/23 07:25:23;;;;;;;4.67;3.70;;;;;;;20.73;59.48;95846.73;1758193;81;21533;-60
2021/07/23 07:27:53;;;;;;;6.17;4.05;;;;;;;20.90;57.08;95843.98;1758549;82;21011;-60
2021/07/23 07:30:21;;;;;;;5.87;4.10;;;;;;;21.04;59.10;95843.23;1758533;82;21480;-60
2021/07/23 07:32:47;;;;;;;6.25;3.80;;;;;;;21.19;58.30;95844.16;1758402;82;21025;-60
2021/07/23 07:35:14;;;;;;;5.65;4.10;;;;;;;21.31;56.39;95839.44;1758183;82;21058;-60
2021/07/23 07:37:41;;;;;;;5.10;3.87;;;;;;;21.37;57.44;95840.93;1757877;82;21049;-60
2021/07/23 07:40:10;;;;;;;5.33;4.03;;;;;;;21.51;57.85;95833.44;1758467;81;21038;-60
2021/07/23 07:42:36;;;;;;;5.78;4.00;;;;;;;21.60;56.88;95837.80;1758707;81;21018;-60
2021/07/23 07:45:05;;;;;;;7.28;4.30;;;;;;;21.65;53.83;95831.31;1758476;81;21464;-60
2021/07/23 07:47:32;;;;;;;9.55;4.60;;;;;;;21.74;55.55;95828.06;1758726;82;21007;-60
2021/07/23 07:49:59;;;;;;;5.53;4.20;;;;;;;21.85;54.57;95830.99;1762673;81;21031;-60
2021/07/23 07:52:25;;;;;;;7.47;4.30;;;;;;;21.90;54.79;95830.23;1765070;81;20995;-60
2021/07/23 07:54:52;;;;;;;5.22;4.50;;;;;;;21.96;52.90;95829.00;1765411;81;21057;-60
2021/07/23 07:57:18;;;;;;;5.12;4.40;;;;;;;22.01;53.18;95825.56;1764997;81;21062;-60
2021/07/23 07:59:45;;;;;;;5.92;4.12;;;;;;;22.15;54.05;95821.56;1765075;81;21484;-60
2021/07/23 08:02:13;;;;;;;5.87;4.40;;;;;;;22.20;49.60;95822.19;1765356;81;21053;-60
2021/07/23 08:04:40;;;;;;;5.75;4.30;;;;;;;22.26;51.97;95823.63;1765343;81;20998;-60
2021/07/23 08:07:10;;;;;;;12.78;4.50;;;;;;;22.29;51.78;95819.40;1764785;81;21106;-60
2021/07/23 08:09:58;;;;;;;6.15;4.08;;;;;;;22.40;51.68;95822.77;1765358;81;20971;-60
2021/07/23 08:12:22;;;;;;;4.80;4.20;;;;;;;22.51;52.91;95820.29;1764827;81;21038;-60
2021/07/23 08:14:49;;;;;;;6.12;4.25;;;;;;;22.62;52.88;95824.98;1765124;81;21090;-60
2021/07/23 08:17:16;;;;;;;4.67;4.00;;;;;;;22.66;50.75;95823.36;1765077;81;21102;-60
2021/07/23 08:19:42;;;;;;;5.08;4.35;;;;;;;22.62;51.72;95827.19;1765318;81;20986;-61
2021/07/23 08:22:09;;;;;;;6.20;4.22;;;;;;;22.55;52.15;95826.33;1765361;81;21492;-60
2021/07/23 08:24:38;;;;;;;5.22;3.85;;;;;;;22.61;51.32;95823.27;1765283;81;21018;-60
2021/07/23 08:27:06;;;;;;;6.90;4.75;;;;;;;22.61;51.49;95827.31;1764905;81;21070;-60
2021/07/23 08:29:32;;;;;;;4.53;4.12;;;;;;;22.73;52.52;95833.27;1765282;81;21010;-60
2021/07/23 08:32:09;;;;;;;4.55;3.87;;;;;;;22.87;51.08;95832.37;1765333;81;21436;-60
2021/07/23 08:34:37;;;;;;;7.85;4.80;;;;;;;23.03;50.52;95833.17;1765395;81;21524;-60
2021/07/23 08:37:05;;;;;;;8.33;4.65;;;;;;;23.13;50.55;95825.34;1765242;81;21457;-60
2021/07/23 08:39:33;;;;;;;5.62;4.00;;;;;;;23.26;51.80;95825.44;1765332;81;21536;-60
2021/07/23 08:42:20;;;;;;;10.05;4.10;;;;;;;23.37;51.77;95826.08;1765166;81;21513;-60
2021/07/23 08:44:46;;;;;;;6.60;4.42;;;;;;;23.46;50.99;95826.80;1765542;81;21018;-60
2021/07/23 08:47:13;;;;;;;5.92;4.50;;;;;;;23.62;50.65;95833.41;1765377;81;20983;-59
2021/07/23 08:49:40;;;;;;;4.58;4.03;;;;;;;23.72;51.49;95832.70;1765103;81;21042;-60
2021/07/23 08:52:06;;;;;;;4.35;3.95;;;;;;;23.82;49.64;95831.61;1765255;81;21023;-60
2021/07/23 08:54:33;;;;;;;4.35;3.95;;;;;;;23.88;49.57;95830.33;1765211;81;20978;-60
2021/07/23 08:57:00;;;;;;;6.85;4.35;;;;;;;23.83;47.23;95825.73;1764842;81;20991;-60
2021/07/23 08:59:26;;;;;;;6.35;4.58;;;;;;;24.01;48.97;95835.74;1765383;81;21041;-60
2021/07/23 09:02:04;;;;;;;7.33;4.35;;;;;;;24.18;48.62;95834.97;1764949;81;21022;-61
2021/07/23 09:04:37;;;;;;;5.53;3.87;;;;;;;24.32;48.78;95830.47;1765269;81;20979;-60
2021/07/23 09:07:18;;;;;;;4.90;4.35;;;;;;;24.45;48.11;95831.83;1765409;81;21019;-60
2021/07/23 09:09:57;;;;;;;6.30;3.65;;;;;;;24.59;47.13;95826.34;1764989;81;21019;-60
2021/07/23 09:12:24;;;;;;;6.67;4.15;;;;;;;24.77;47.91;95819.66;1765267;81;21480;-60
2021/07/23 09:14:50;;;;;;;5.22;4.20;;;;;;;24.91;47.79;95811.91;1765447;81;20978;-60
2021/07/23 09:17:17;;;;;;;8.58;4.05;;;;;;;25.09;45.42;95813.75;1765231;81;21101;-61
2021/07/23 09:20:01;;;;;;;5.35;4.00;;;;;;;25.12;45.79;95801.37;1764962;81;21033;-60
2021/07/23 09:22:51;;;;;;;5.20;3.75;;;;;;;25.34;45.81;95803.40;1765244;81;21050;-60
2021/07/23 09:25:38;;;;;;;5.53;4.47;;;;;;;25.65;46.61;95807.39;1764361;81;21034;-60
2021/07/23 09:28:25;;;;;;;5.15;3.77;;;;;;;25.75;46.09;95806.68;1764979;81;21026;-60
2021/07/23 09:30:53;;;;;;;4.50;4.10;;;;;;;25.57;43.06;95806.23;1765120;81;21046;-60
2021/07/23 09:33:41;;;;;;;5.10;3.85;;;;;;;25.52;45.84;95804.36;1765320;81;21086;-61
2021/07/23 09:36:10;;;;;;;5.45;3.92;;;;;;;25.51;44.72;95812.96;1765245;81;21054;-61
2021/07/23 09:38:45;;;;;;;6.42;4.65;;;;;;;25.44;45.52;95804.94;1765187;81;21366;-61
2021/07/23 09:41:26;;;;;;;11.10;4.47;;;;;;;25.00;46.48;95810.39;1765296;81;21026;-61
2021/07/23 09:44:01;;;;;;;6.42;4.62;;;;;;;24.81;46.92;95806.80;1763307;81;21045;-62
2021/07/23 09:46:34;;;;;;;6.25;4.42;;;;;;;24.67;48.38;95806.45;1764497;81;21026;-61
2021/07/23 09:49:26;;;;;;;7.00;4.50;;;;;;;24.57;47.97;95808.08;1763882;81;21038;-61
2021/07/23 09:51:55;;;;;;;9.20;4.90;;;;;;;24.48;48.24;95816.31;1764716;81;21022;-61
2021/07/23 09:54:22;;;;;;;7.00;4.47;;;;;;;24.40;49.82;95814.61;1765210;81;21063;-61
2021/07/23 09:56:50;;;;;;;7.60;4.70;;;;;;;24.38;49.78;95811.16;1765065;81;21013;-61
2021/07/23 09:59:22;;;;;;;6.80;4.72;;;;;;;24.39;49.69;95812.87;1764889;81;21504;-61
2021/07/23 10:01:54;;;;;;;6.40;4.47;;;;;;;24.35;48.68;95808.68;1764921;81;21082;-61
2021/07/23 10:04:30;;;;;;;5.58;4.50;;;;;;;24.31;48.45;95807.16;1765232;81;21019;-61
2021/07/23 10:07:19;;;;;;;5.95;4.60;;;;;;;24.32;48.58;95812.95;1764955;81;21007;-61
2021/07/23 10:09:47;;;;;;;6.45;4.40;;;;;;;24.36;49.15;95812.59;1764032;81;21018;-61
2021/07/23 10:12:16;;;;;;;8.75;4.47;;;;;;;24.80;48.64;95811.83;1764574;81;21153;-61
2021/07/23 10:14:46;;;;;;;5.20;4.50;;;;;;;24.85;47.46;95812.36;1765110;81;20998;-61
2021/07/23 10:17:14;;;;;;;6.35;5.25;;;;;;;24.79;47.42;95809.59;1765304;81;21425;-61
2021/07/23 10:19:41;;;;;;;7.50;4.90;;;;;;;24.83;47.63;95814.30;1765354;81;21078;-61
2021/07/23 10:22:11;;;;;;;4.83;4.08;;;;;;;24.84;48.32;95812.82;1765335;81;21006;-61
2021/07/23 10:24:38;;;;;;;6.08;4.83;;;;;;;24.85;47.11;95808.31;1765254;81;21033;-61
2021/07/23 10:27:09;;;;;;;5.83;4.35;;;;;;;24.78;47.89;95804.33;1765098;81;20986;-61
2021/07/23 10:29:50;;;;;;;7.00;4.37;;;;;;;24.71;48.14;95808.43;1764710;81;21027;-61
2021/07/23 10:32:32;;;;;;;5.08;4.00;;;;;;;24.88;47.12;95805.88;1765348;81;21488;-60
2021/07/23 10:35:19;;;;;;;5.87;4.53;;;;;;;24.95;47.34;95805.33;1764691;81;20986;-61
2021/07/23 10:37:54;;;;;;;6.45;4.50;;;;;;;25.50;47.45;95796.36;1733288;81;21496;-61
2021/07/23 10:40:32;;;;;;;6.50;4.42;;;;;;;25.90;44.26;95792.03;1765050;81;21551;-61
2021/07/23 10:42:59;;;;;;;12.73;5.40;;;;;;;26.06;44.95;95787.67;1764419;81;21053;-61
2021/07/23 10:45:42;;;;;;;5.03;4.47;;;;;;;26.06;44.95;95781.77;1764959;81;21098;-60
2021/07/23 10:48:09;;;;;;;5.80;4.60;;;;;;;26.43;47.00;95784.79;1765082;81;20942;-61
2021/07/23 10:50:44;;;;;;;6.40;4.60;;;;;;;26.80;44.55;95784.61;1732993;81;21058;-60
2021/07/23 10:53:31;;;;;;;5.90;4.83;;;;;;;27.24;44.27;95776.09;1765617;81;21448;-60
2021/07/23 10:55:58;;;;;;;7.15;4.60;;;;;;;27.33;43.91;95776.20;1764825;81;21058;-60
2021/07/23 10:58:30;;;;;;;5.78;4.03;;;;;;;27.57;45.89;95780.09;1765256;81;21022;-60
2021/07/23 11:01:02;;;;;;;6.60;4.97;;;;;;;27.49;44.36;95773.58;1765092;81;21552;-60
2021/07/23 11:03:43;;;;;;;4.57;4.10;;;;;;;27.42;44.17;95774.59;1765485;81;21018;-61
2021/07/23 11:06:22;;;;;;;4.80;4.30;;;;;;;27.61;46.10;95779.33;1765389;81;20991;-61
2021/07/23 11:08:53;;;;;;;5.42;4.55;;;;;;;27.53;45.03;95777.77;1765053;81;21045;-62
2021/07/23 11:11:27;;;;;;;4.53;4.12;;;;;;;27.68;41.66;95766.14;1764642;81;21053;-60
2021/07/23 11:13:54;;;;;;;5.60;4.22;;;;;;;27.57;41.61;95768.41;1765330;81;20994;-61
2021/07/23 11:16:26;;;;;;;6.10;4.58;;;;;;;27.24;41.60;95766.62;1764866;81;21053;-60
2021/07/23 11:18:58;;;;;;;7.72;4.62;;;;;;;27.03;42.64;95761.94;1765176;81;20998;-60
2021/07/23 11:21:36;;;;;;;6.10;4.17;;;;;;;27.26;43.56;95766.86;1765089;81;21029;-60
2021/07/23 11:24:13;;;;;;;5.12;4.28;;;;;;;27.16;41.70;95762.66;1765071;81;21049;-60
2021/07/23 11:26:53;;;;;;;5.33;4.35;;;;;;;26.85;43.58;95765.66;1765479;81;21571;-60
2021/07/23 11:29:37;;;;;;;4.92;4.20;;;;;;;26.63;43.61;95765.66;1765358;81;20974;-60
2021/07/23 11:32:11;;;;;;;7.70;5.70;;;;;;;26.57;43.33;95758.89;1765533;81;21023;-60
2021/07/23 11:34:41;;;;;;;9.40;5.12;;;;;;;26.29;44.16;95760.19;1765348;81;21061;-60
2021/07/23 11:37:26;;;;;;;6.85;4.60;;;;;;;26.04;43.90;95763.95;1765126;81;21045;-61
2021/07/23 11:40:00;;;;;;;9.95;5.35;;;;;;;25.91;45.69;95765.39;1765327;81;20986;-60
2021/07/23 11:42:41;;;;;;;9.13;5.05;;;;;;;25.80;44.44;95758.54;1765328;81;20975;-60